Seatac, WA

04:42 PM PST on ianuarie 30, 2015 (GMT -0800)
Seattle-Tacoma International | Change Station
CLOSE
Current Station
Aeroport
Location: Seattle,
Elevation: 433 ft
Nearby Weather Stations

Elev 433 ft 47.44 °N, 122.31 °W | Updated 49 minutes ago

Cer parţial noros
Cer parţial noros
44 °F
Feels Like 42 °F
N
5
Vânt variabil Vânt from SSV

astăzi
High -- | Low -- °F
--% Chance of Precip.
Ieri
High -- | Low -- °F
Precip. -- inch
7:38 AM 5:07 PM
Lună în creştere, 86% visible
Presiunea 30.30 inch
Vizibilitatea 4.0 mile
Nori Nori risipiţi 200 ft
Nori risipiţi 25000 ft
Vânt rece 42 °F
Punctul de rouă 40 °F
Umiditatea 85%
Precipitaţii 0.00 inch
Adâncimea zăpezii Not available.
UV 0 out of 12
Pollen 5.70 out of 12
Calitatea aerului Not available.
Flu Activity Not available.
METAR KSEA 302353Z 21004KT 4SM BR SCT002 SCT250 07/04 A3027 RMK AO2 SLP260 T00670044 10083 20033 55002

More Conditions Fewer Conditions

Presiunea 30.30 inch
Vizibilitatea 4.0 mile
Nori Nori risipiţi 200 ft
Nori risipiţi 25000 ft
Vânt rece 42 °F
Punctul de rouă 40 °F
Umiditatea 85%
Precipitaţii 0.00 inch
Adâncimea zăpezii Not available.
UV 0 out of 12
Pollen 5.70 out of 12
Calitatea aerului Not available.
Flu Activity Not available.
METAR KSEA 302353Z 21004KT 4SM BR SCT002 SCT250 07/04 A3027 RMK AO2 SLP260 T00670044 10083 20033 55002

More Conditions Fewer Conditions

10-Day Weather Forecast

Almanac

Astronomie

Jan. 30, 2015 Răsărit Apus
Timpul Actual
Crepusculul Civil
Crepusculul nautic
Răsărit Astronomic
Luna
Durata zilei lumină
Lungimea zilei
Tomorrow will be .
, % of the Moon is Illuminated

Extremele de azi

State Highs State Lows

Community

WunderPhotos

Upload Photos

1,791,942 photos uploaded!

WunderBlogs® & News

Nearby

Calitatea aerului

  Calitatea aerului Index de calitate a aerului Poluat
Not available.

Adâncimea zapezii

Station Depth Elevation

Earthquake Activity

Oraş Distance Mag. Time & Date
Minimum magnitude displayed is 2.5.

Coastal Water Temperatures

Locul Temperatura

Nearby Weather Stations